createdAt,value
2018-04-30T03:50:26.874Z,63.10
2018-04-30T03:52:55.727Z,63.50
2018-04-30T03:55:25.381Z,63.00
2018-04-30T03:57:55.372Z,63.00
2018-04-30T04:00:42.232Z,63.50
2018-04-30T04:03:28.936Z,63.00
2018-04-30T04:09:10.099Z,63.60
2018-04-30T04:11:38.950Z,62.90
2018-04-30T04:14:07.830Z,62.30
2018-04-30T04:16:36.760Z,62.20
2018-04-30T04:19:06.381Z,62.70
2018-04-30T04:21:35.230Z,62.60
2018-04-30T04:24:04.073Z,62.40
2018-04-30T04:26:32.981Z,63.30
2018-04-30T04:29:01.895Z,62.00
2018-04-30T04:31:30.869Z,61.00
2018-04-30T04:33:59.789Z,61.20
2018-04-30T04:36:28.743Z,60.30
2018-04-30T04:38:57.728Z,59.30
2018-04-30T04:41:26.667Z,58.00
2018-04-30T04:43:55.536Z,57.70
2018-04-30T04:46:24.502Z,56.70
2018-04-30T04:48:53.377Z,56.10
2018-04-30T04:51:22.573Z,55.30
2018-04-30T04:53:51.711Z,52.30
2018-04-30T04:56:20.686Z,51.10
2018-04-30T04:58:49.601Z,50.00
2018-04-30T05:01:18.490Z,48.00
2018-04-30T05:03:47.377Z,48.00
2018-04-30T05:06:16.312Z,47.50
2018-04-30T05:08:46.014Z,47.90
2018-04-30T05:11:14.977Z,47.90
2018-04-30T05:13:43.880Z,45.80
2018-04-30T05:16:12.833Z,44.50
2018-04-30T05:18:41.711Z,44.30
2018-04-30T05:21:11.415Z,43.00
2018-04-30T05:23:40.364Z,43.00
2018-04-30T05:26:09.268Z,44.10
2018-04-30T05:28:38.152Z,46.60
2018-04-30T05:31:07.100Z,48.10
2018-04-30T05:33:35.984Z,49.20
2018-04-30T05:36:04.939Z,50.60
2018-04-30T05:38:33.973Z,51.90
2018-04-30T05:41:02.846Z,54.80
2018-04-30T05:43:31.711Z,53.40
2018-04-30T05:46:00.656Z,51.80
2018-04-30T05:48:29.558Z,52.40
2018-04-30T05:50:58.440Z,51.70
2018-04-30T05:53:27.580Z,50.90
2018-04-30T05:55:57.189Z,48.60
2018-04-30T05:58:26.136Z,48.50
2018-04-30T06:00:55.074Z,50.30
2018-04-30T06:03:23.948Z,51.50
2018-04-30T06:05:53.681Z,50.70
2018-04-30T06:08:22.612Z,50.60
2018-04-30T06:10:51.631Z,49.00
2018-04-30T06:13:20.586Z,46.80
2018-04-30T06:15:49.526Z,50.10
2018-04-30T06:18:18.383Z,50.40
2018-04-30T06:20:47.278Z,52.40
2018-04-30T06:23:16.257Z,49.40
2018-04-30T06:25:45.175Z,48.00
2018-04-30T06:28:14.959Z,45.30
2018-04-30T06:30:43.902Z,45.80
2018-04-30T06:33:12.813Z,43.10
2018-04-30T06:35:41.746Z,42.40
2018-04-30T06:38:10.677Z,44.30
2018-04-30T06:40:40.482Z,45.20
2018-04-30T06:43:10.193Z,44.50
2018-04-30T06:45:39.903Z,46.80
2018-04-30T06:48:09.793Z,46.80
2018-04-30T06:50:38.693Z,46.90
2018-04-30T06:53:08.341Z,49.10
2018-04-30T06:55:37.271Z,49.00
2018-04-30T06:58:06.224Z,50.40
2018-04-30T07:00:35.180Z,49.00
2018-04-30T07:03:04.158Z,48.70
2018-04-30T07:05:33.068Z,46.60
2018-04-30T07:08:02.796Z,46.70
2018-04-30T07:10:31.702Z,46.80
2018-04-30T07:13:00.677Z,48.70
2018-04-30T07:15:29.558Z,50.30
2018-04-30T07:17:59.183Z,52.90
2018-04-30T07:20:28.125Z,52.80
2018-04-30T07:22:57.083Z,53.60
2018-04-30T07:25:25.968Z,53.10
2018-04-30T07:27:54.958Z,54.50
2018-04-30T07:30:23.806Z,53.40
2018-04-30T07:32:53.467Z,55.40
2018-04-30T07:35:22.415Z,55.40
2018-04-30T07:37:52.105Z,54.90
2018-04-30T07:40:21.770Z,55.00
2018-04-30T07:42:50.704Z,54.90
2018-04-30T07:45:19.564Z,55.90
2018-04-30T07:47:48.520Z,56.60
2018-04-30T07:50:17.437Z,56.50
2018-04-30T07:52:47.090Z,56.10
2018-04-30T07:55:15.952Z,56.20
2018-04-30T07:57:44.919Z,57.30
2018-04-30T08:00:13.888Z,55.60
2018-04-30T08:02:43.520Z,55.00
2018-04-30T08:05:12.412Z,55.00
2018-04-30T08:07:41.373Z,56.10
2018-04-30T08:10:10.285Z,55.10
2018-04-30T08:12:39.240Z,53.70
2018-04-30T08:15:08.154Z,52.40
2018-04-30T08:17:37.043Z,52.60
2018-04-30T08:20:05.962Z,51.80
2018-04-30T08:22:34.870Z,48.30
2018-04-30T08:25:03.793Z,47.50
2018-04-30T08:27:33.524Z,46.10
2018-04-30T08:30:02.466Z,45.90
2018-04-30T08:32:31.332Z,44.60
2018-04-30T08:35:00.297Z,42.60
2018-04-30T08:37:29.146Z,39.60
2018-04-30T08:39:58.067Z,40.30
2018-04-30T08:42:27.750Z,39.50
2018-04-30T08:44:56.707Z,39.40
2018-04-30T08:47:25.590Z,40.70
2018-04-30T08:49:54.527Z,42.50
2018-04-30T08:52:23.475Z,44.00
2018-04-30T08:54:52.473Z,44.90
2018-04-30T08:57:21.484Z,43.90
2018-04-30T08:59:50.470Z,43.50
2018-04-30T09:02:19.454Z,43.10
2018-04-30T09:04:56.420Z,40.90
2018-04-30T09:07:25.729Z,38.10
2018-04-30T09:09:54.665Z,37.80
2018-04-30T09:12:23.568Z,37.00
2018-04-30T09:14:53.309Z,35.60
2018-04-30T09:17:22.154Z,35.50
2018-04-30T09:19:51.116Z,34.50
2018-04-30T09:22:20.046Z,37.20
2018-04-30T09:24:49.700Z,37.60
2018-04-30T09:27:18.600Z,37.50
2018-04-30T09:29:47.505Z,33.80
2018-04-30T09:32:16.515Z,34.50
2018-04-30T09:34:45.486Z,36.60
2018-04-30T09:37:14.377Z,32.60
2018-04-30T09:39:44.891Z,34.80
2018-04-30T09:42:13.838Z,36.50
2018-04-30T09:44:43.476Z,34.90
2018-04-30T09:47:13.402Z,34.80
2018-04-30T09:49:51.419Z,34.50
2018-04-30T09:52:20.434Z,36.50
2018-04-30T09:54:49.359Z,38.80
2018-04-30T09:57:18.368Z,38.20
2018-04-30T09:59:47.334Z,38.90
2018-04-30T10:02:17.488Z,38.00
2018-04-30T10:04:46.496Z,38.00
2018-04-30T10:07:15.565Z,39.50
2018-04-30T10:09:44.474Z,41.20
2018-04-30T10:12:13.404Z,38.30
2018-04-30T10:14:42.344Z,37.50
2018-04-30T10:17:12.038Z,36.90
2018-04-30T10:19:40.934Z,36.90
2018-04-30T10:22:09.809Z,36.40
2018-04-30T10:24:39.506Z,35.40
2018-04-30T10:27:09.222Z,35.00
2018-04-30T10:29:38.120Z,35.00
2018-04-30T10:32:14.197Z,34.40
2018-04-30T10:34:43.016Z,31.70
2018-04-30T10:37:11.994Z,34.00
2018-04-30T10:39:40.902Z,34.90
2018-04-30T10:42:10.577Z,36.30
2018-04-30T10:44:39.553Z,38.30
2018-04-30T10:47:08.507Z,35.70
2018-04-30T10:49:37.400Z,33.70
2018-04-30T10:52:06.380Z,34.20
2018-04-30T10:54:35.346Z,35.90
2018-04-30T10:57:04.246Z,36.70
2018-04-30T10:59:33.235Z,38.90
2018-04-30T11:02:02.250Z,39.00
2018-04-30T11:04:31.234Z,40.00
2018-04-30T11:07:00.131Z,40.00
2018-04-30T11:09:29.019Z,38.20
2018-04-30T11:11:57.939Z,39.40
2018-04-30T11:14:27.592Z,40.90
2018-04-30T11:16:56.494Z,40.50
2018-04-30T11:19:25.386Z,40.30
2018-04-30T11:21:54.240Z,40.80
2018-04-30T11:24:23.158Z,40.60
2018-04-30T11:26:52.081Z,40.90
2018-04-30T11:29:20.973Z,39.60
2018-04-30T11:31:49.931Z,42.00
2018-04-30T11:34:18.812Z,42.20
2018-04-30T11:36:47.746Z,44.70
2018-04-30T11:39:16.668Z,45.50
2018-04-30T11:41:45.622Z,44.60
2018-04-30T11:44:14.526Z,45.60
2018-04-30T11:46:43.496Z,43.40
2018-04-30T11:49:12.494Z,44.70
2018-04-30T11:51:41.475Z,41.60
2018-04-30T11:54:10.397Z,42.50
2018-04-30T11:56:39.282Z,40.20
2018-04-30T11:59:09.551Z,39.50
2018-04-30T12:01:38.578Z,36.80
2018-04-30T12:04:07.449Z,40.40
2018-04-30T12:06:36.397Z,40.00
2018-04-30T12:09:06.704Z,38.70
2018-04-30T12:11:35.643Z,37.90
2018-04-30T12:14:05.627Z,38.20
2018-04-30T12:16:34.590Z,37.40
2018-04-30T12:19:04.758Z,38.80
2018-04-30T12:21:34.224Z,38.60
2018-04-30T12:24:03.133Z,40.00
2018-04-30T12:26:32.790Z,40.50
2018-04-30T12:29:01.737Z,40.40
2018-04-30T12:31:30.660Z,41.40
2018-04-30T12:33:59.603Z,42.30
2018-04-30T12:36:29.388Z,41.40
2018-04-30T12:38:58.943Z,41.30
2018-04-30T12:41:27.884Z,41.80
2018-04-30T12:43:57.551Z,43.00
2018-04-30T12:46:26.490Z,46.00
2018-04-30T12:48:55.469Z,43.30
2018-04-30T12:51:24.402Z,43.50
2018-04-30T12:53:54.040Z,39.80
2018-04-30T12:56:22.989Z,39.70
2018-04-30T12:58:52.005Z,40.50
2018-04-30T13:01:20.890Z,40.30
2018-04-30T13:03:50.599Z,40.90
2018-04-30T13:06:19.528Z,40.90
2018-04-30T13:08:48.488Z,39.40
2018-04-30T13:11:17.411Z,39.90
2018-04-30T13:13:46.397Z,39.30
2018-04-30T13:16:15.354Z,39.70
2018-04-30T13:18:45.009Z,40.10
2018-04-30T13:21:13.908Z,40.10
2018-04-30T13:23:42.818Z,39.40
2018-04-30T13:26:11.790Z,40.00
2018-04-30T13:28:40.783Z,40.00
2018-04-30T13:31:13.323Z,39.90
2018-04-30T13:33:42.266Z,39.80
2018-04-30T13:36:11.172Z,40.80
2018-04-30T13:38:40.080Z,40.70
2018-04-30T13:41:09.869Z,40.80
2018-04-30T13:43:38.888Z,40.70
2018-04-30T13:46:07.781Z,39.60
2018-04-30T13:48:36.706Z,41.10
2018-04-30T13:51:06.212Z,38.40
2018-04-30T13:53:36.244Z,39.90
2018-04-30T13:56:06.647Z,40.00
2018-04-30T13:58:45.179Z,40.10
2018-04-30T14:01:15.192Z,42.00
2018-04-30T14:03:44.191Z,42.60
2018-04-30T14:06:13.062Z,41.20
2018-04-30T14:08:41.981Z,41.50
2018-04-30T14:11:11.902Z,42.00
2018-04-30T14:13:40.823Z,39.90
2018-04-30T14:16:09.711Z,39.80
2018-04-30T14:18:38.646Z,40.30
2018-04-30T14:21:10.798Z,40.80
2018-04-30T14:23:43.216Z,40.60
2018-04-30T14:26:12.220Z,43.00
2018-04-30T14:28:41.571Z,42.00
2018-04-30T14:31:10.589Z,42.30
2018-04-30T14:33:39.506Z,42.40
2018-04-30T14:36:08.405Z,43.00
2018-04-30T14:38:38.850Z,43.20
2018-04-30T14:41:31.551Z,43.10
2018-04-30T14:44:01.597Z,43.80
2018-04-30T14:46:30.541Z,43.80
2018-04-30T14:48:59.425Z,43.90
2018-04-30T14:51:28.395Z,44.60
2018-04-30T14:53:57.285Z,44.70
2018-04-30T14:56:26.185Z,45.50
2018-04-30T14:58:55.080Z,45.80
2018-04-30T15:01:23.932Z,45.00
2018-04-30T15:03:53.567Z,45.80
2018-04-30T15:06:22.439Z,45.70
2018-04-30T15:08:52.113Z,46.40
2018-04-30T15:11:21.111Z,46.40
2018-04-30T15:13:49.981Z,45.50
2018-04-30T15:16:18.897Z,45.50
2018-04-30T15:18:47.862Z,45.60
2018-04-30T15:21:16.872Z,46.20
2018-04-30T15:23:45.834Z,45.00
2018-04-30T15:26:14.814Z,46.30
2018-04-30T15:28:45.340Z,44.40
2018-04-30T15:31:14.200Z,45.00
2018-04-30T15:33:43.891Z,44.50
2018-04-30T15:36:12.801Z,44.50
2018-04-30T15:38:42.528Z,43.10
2018-04-30T15:41:11.549Z,43.00
2018-04-30T15:43:40.421Z,42.80
2018-04-30T15:46:09.329Z,42.80
2018-04-30T15:48:38.300Z,43.50
2018-04-30T15:51:07.210Z,42.70
2018-04-30T15:53:36.092Z,43.50
2018-04-30T15:56:05.021Z,43.20
2018-04-30T15:58:33.945Z,43.90
2018-04-30T16:01:03.750Z,44.60
2018-04-30T16:03:33.472Z,44.60
2018-04-30T16:06:03.158Z,45.30
2018-04-30T16:08:32.052Z,45.40
2018-04-30T16:11:00.922Z,45.90
2018-04-30T16:13:29.918Z,47.20
2018-04-30T16:15:58.836Z,46.00
2018-04-30T16:18:28.725Z,46.50
2018-04-30T16:20:57.626Z,46.50
2018-04-30T16:23:26.578Z,45.50
2018-04-30T16:25:55.524Z,42.80
2018-04-30T16:28:25.174Z,42.30
2018-04-30T16:30:54.070Z,41.60
2018-04-30T16:33:22.964Z,42.00
2018-04-30T16:35:51.831Z,41.30
2018-04-30T16:38:20.728Z,41.10
2018-04-30T16:40:49.708Z,42.00
2018-04-30T16:43:18.619Z,42.70
2018-04-30T16:45:47.508Z,43.10
2018-04-30T16:48:16.431Z,43.10
2018-04-30T16:50:45.312Z,42.90
2018-04-30T16:53:14.264Z,43.50
2018-04-30T16:55:43.279Z,43.10
2018-04-30T16:58:12.172Z,43.50
2018-04-30T17:00:41.062Z,43.30
2018-04-30T17:03:11.083Z,44.00
2018-04-30T17:05:40.764Z,44.30
2018-04-30T17:08:09.701Z,44.30
2018-04-30T17:10:38.674Z,44.10
2018-04-30T17:13:07.535Z,44.60
2018-04-30T17:15:36.671Z,44.60
2018-04-30T17:18:06.477Z,44.90
2018-04-30T17:20:35.372Z,45.20
2018-04-30T17:23:04.306Z,45.50
2018-04-30T17:25:33.204Z,45.40
2018-04-30T17:28:02.085Z,45.70
2018-04-30T17:30:31.747Z,46.60
2018-04-30T17:33:00.669Z,46.60
2018-04-30T17:35:29.626Z,46.40
2018-04-30T17:37:58.593Z,46.60
2018-04-30T17:40:27.482Z,46.80
2018-04-30T17:42:56.505Z,47.30
2018-04-30T17:45:26.261Z,48.40
2018-04-30T17:47:56.015Z,48.80
2018-04-30T17:50:24.894Z,48.70
2018-04-30T17:52:53.753Z,49.80
2018-04-30T17:55:23.501Z,49.20
2018-04-30T17:57:52.462Z,49.10
2018-04-30T18:00:22.122Z,50.40
2018-04-30T18:02:52.152Z,50.40
2018-04-30T18:05:21.162Z,50.90
2018-04-30T18:07:50.094Z,51.20
2018-04-30T18:10:19.054Z,51.30
2018-04-30T18:12:48.046Z,51.20
2018-04-30T18:15:16.918Z,51.60
2018-04-30T18:17:46.391Z,52.10
2018-04-30T18:20:15.331Z,53.10
2018-04-30T18:22:44.988Z,52.90
2018-04-30T18:25:13.901Z,52.80
2018-04-30T18:27:42.882Z,52.80
2018-04-30T18:30:11.772Z,53.00
2018-04-30T18:32:40.713Z,51.70
2018-04-30T18:35:09.584Z,51.10
2018-04-30T18:37:39.284Z,51.50
2018-04-30T18:40:08.196Z,51.50
2018-04-30T18:42:37.880Z,52.20
2018-04-30T18:45:06.820Z,52.20
2018-04-30T18:47:35.796Z,52.50
2018-04-30T18:50:04.679Z,52.50
2018-04-30T18:52:34.352Z,51.90
2018-04-30T18:55:03.275Z,51.90
2018-04-30T18:57:32.954Z,51.40
2018-04-30T19:00:01.822Z,51.40
2018-04-30T19:02:30.736Z,52.20
2018-04-30T19:04:59.608Z,52.30
2018-04-30T19:07:28.567Z,51.60
2018-04-30T19:09:59.006Z,53.70
2018-04-30T19:12:27.920Z,55.20
2018-04-30T19:14:56.882Z,55.80
2018-04-30T19:17:25.784Z,55.80
2018-04-30T19:19:54.766Z,56.50
2018-04-30T19:22:23.622Z,57.40
2018-04-30T19:24:53.487Z,56.70
2018-04-30T19:27:22.373Z,56.70
2018-04-30T19:29:51.244Z,53.70
2018-04-30T19:32:20.278Z,53.60
2018-04-30T19:34:49.211Z,54.20
2018-04-30T19:37:18.883Z,54.90
2018-04-30T19:39:47.825Z,54.90
2018-04-30T19:42:16.696Z,55.20
2018-04-30T19:44:46.450Z,56.60
2018-04-30T19:47:15.360Z,56.60
2018-04-30T19:49:44.268Z,55.60
2018-04-30T19:52:13.281Z,55.90
2018-04-30T19:54:47.659Z,55.90
2018-04-30T19:57:17.001Z,57.30
2018-04-30T19:59:45.941Z,58.80
2018-04-30T20:02:19.258Z,60.40
2018-04-30T20:04:49.260Z,60.80
2018-04-30T20:07:18.192Z,62.20
2018-04-30T20:09:47.134Z,63.90
2018-04-30T20:12:15.991Z,65.30
2018-04-30T20:14:44.964Z,65.80
2018-04-30T20:17:14.639Z,64.70
2018-04-30T20:19:44.080Z,64.10
2018-04-30T20:22:13.882Z,64.60
2018-04-30T20:24:43.515Z,64.20
2018-04-30T20:27:12.434Z,64.70
2018-04-30T20:29:41.308Z,66.40
2018-04-30T20:32:10.201Z,66.30
2018-04-30T20:34:40.050Z,68.20
2018-04-30T20:37:09.094Z,69.90
2018-04-30T20:39:38.002Z,70.90
2018-04-30T20:42:06.917Z,70.40
2018-04-30T20:44:35.855Z,69.20
2018-04-30T20:47:05.534Z,72.20
2018-04-30T20:49:34.443Z,72.20
2018-04-30T20:52:04.145Z,74.10
2018-04-30T20:54:33.064Z,74.00
2018-04-30T20:57:01.950Z,73.30
2018-04-30T20:59:30.866Z,74.50
2018-04-30T21:02:00.557Z,75.20
2018-04-30T21:04:30.418Z,75.10
2018-04-30T21:06:59.451Z,76.30
2018-04-30T21:09:29.080Z,73.30
2018-04-30T21:11:57.988Z,73.90
2018-04-30T21:14:26.902Z,73.10
2018-04-30T21:16:55.827Z,72.20
2018-04-30T21:19:25.582Z,71.20
2018-04-30T21:21:54.474Z,71.20
2018-04-30T21:24:23.569Z,71.10
2018-04-30T21:26:52.368Z,71.70
2018-04-30T21:29:21.251Z,72.30
2018-04-30T21:31:50.235Z,72.50
2018-04-30T21:34:19.144Z,73.20
2018-04-30T21:36:48.094Z,73.40
2018-04-30T21:39:18.172Z,73.70
2018-04-30T21:41:47.124Z,74.00
2018-04-30T21:44:16.056Z,74.60
2018-04-30T21:46:45.729Z,75.10
2018-04-30T21:49:14.663Z,75.00
2018-04-30T21:51:43.524Z,74.70
2018-04-30T21:54:12.512Z,75.40
2018-04-30T21:56:42.236Z,75.10
2018-04-30T21:59:11.230Z,75.00
2018-04-30T22:01:40.165Z,75.40
2018-04-30T22:04:09.097Z,75.30
2018-04-30T22:06:37.973Z,75.60
2018-04-30T22:09:06.932Z,75.40
2018-04-30T22:11:36.573Z,76.00
2018-04-30T22:14:05.560Z,75.90
2018-04-30T22:16:35.074Z,76.00
2018-04-30T22:19:03.989Z,76.20
2018-04-30T22:21:32.969Z,76.50
2018-04-30T22:24:03.490Z,76.30
2018-04-30T22:26:33.374Z,76.20
2018-04-30T22:29:02.269Z,76.10
2018-04-30T22:31:31.947Z,76.30
2018-04-30T22:34:12.395Z,76.40
2018-04-30T22:36:42.431Z,76.30
2018-04-30T22:39:12.115Z,76.60
2018-04-30T22:41:41.868Z,76.60
2018-04-30T22:44:10.761Z,76.70
2018-04-30T22:46:40.457Z,76.90
2018-04-30T22:49:09.786Z,77.30
2018-04-30T22:51:38.760Z,77.40
2018-04-30T22:54:07.701Z,77.70
2018-04-30T22:56:36.619Z,78.10
2018-04-30T22:59:05.532Z,78.20
2018-04-30T23:01:34.500Z,78.10
2018-04-30T23:04:03.430Z,78.40
2018-04-30T23:06:32.347Z,78.60
2018-04-30T23:09:01.261Z,78.60
2018-04-30T23:11:30.174Z,78.70
2018-04-30T23:13:59.864Z,78.90
2018-04-30T23:16:29.088Z,78.80
2018-04-30T23:18:57.991Z,78.90
2018-04-30T23:21:26.891Z,78.20
2018-04-30T23:23:55.790Z,78.00
2018-04-30T23:26:24.686Z,78.00
2018-04-30T23:28:53.703Z,77.60
2018-04-30T23:31:22.625Z,75.10
2018-04-30T23:33:51.540Z,75.70
2018-04-30T23:36:20.527Z,74.80
2018-04-30T23:38:49.437Z,75.80
2018-04-30T23:41:18.331Z,75.50
2018-04-30T23:43:47.250Z,74.80
2018-04-30T23:46:16.167Z,74.70
2018-04-30T23:48:45.810Z,76.50
2018-04-30T23:51:14.699Z,76.40
2018-04-30T23:53:43.595Z,76.90
2018-04-30T23:56:12.520Z,77.70
2018-04-30T23:58:41.474Z,78.40
